createdAt,value
2023-01-07T00:01:46.120Z,11.17
2023-01-07T00:05:48.979Z,11.16
2023-01-07T00:09:51.795Z,11.20
2023-01-07T00:13:57.714Z,11.20
2023-01-07T00:18:00.462Z,11.18
2023-01-07T00:22:03.660Z,11.21
2023-01-07T00:26:09.349Z,11.23
2023-01-07T00:30:14.521Z,11.19
2023-01-07T00:34:17.630Z,11.19
2023-01-07T00:38:20.363Z,11.18
2023-01-07T00:42:40.554Z,11.23
2023-01-07T00:46:44.759Z,11.25
2023-01-07T00:50:49.713Z,11.22
2023-01-07T00:54:52.476Z,11.24
2023-01-07T00:58:55.312Z,11.22
2023-01-07T01:03:00.240Z,11.21
2023-01-07T01:07:03.020Z,11.18
2023-01-07T01:11:07.078Z,11.18
2023-01-07T01:15:12.515Z,11.21
2023-01-07T01:19:17.412Z,11.18
2023-01-07T01:23:20.160Z,11.14
2023-01-07T01:27:22.973Z,11.13
2023-01-07T01:31:26.309Z,11.09
2023-01-07T01:35:31.435Z,11.08
2023-01-07T01:39:34.608Z,11.06
2023-01-07T01:43:39.608Z,11.07
2023-01-07T01:47:48.442Z,11.03
2023-01-07T01:51:58.453Z,11.06
2023-01-07T01:56:05.504Z,11.04
2023-01-07T02:00:10.433Z,11.06
2023-01-07T02:04:20.791Z,11.03
2023-01-07T02:08:25.456Z,11.03
2023-01-07T02:12:47.087Z,11.01
2023-01-07T02:16:58.162Z,10.99
2023-01-07T02:21:18.850Z,11.00
2023-01-07T02:26:02.308Z,10.99
2023-01-07T02:30:46.946Z,10.98
2023-01-07T02:34:58.705Z,11.00
2023-01-07T02:39:21.470Z,11.07
2023-01-07T02:43:34.718Z,11.10
2023-01-07T02:47:39.696Z,11.12
2023-01-07T02:51:44.764Z,11.11
2023-01-07T02:55:59.155Z,11.08
2023-01-07T03:00:13.241Z,11.07
2023-01-07T03:04:52.509Z,11.05
2023-01-07T03:09:05.698Z,11.05
2023-01-07T03:13:12.820Z,11.05
2023-01-07T03:17:20.435Z,11.01
2023-01-07T03:21:25.613Z,10.97
2023-01-07T03:25:33.060Z,10.96
2023-01-07T03:29:36.634Z,10.90
2023-01-07T03:33:44.942Z,10.87
2023-01-07T03:37:49.550Z,10.82
2023-01-07T03:42:12.848Z,10.79
2023-01-07T03:46:15.758Z,10.79
2023-01-07T03:50:19.334Z,10.76
2023-01-07T03:54:23.801Z,10.74
2023-01-07T03:58:27.899Z,10.73
2023-01-07T04:02:30.691Z,10.75
2023-01-07T04:06:33.759Z,10.75
2023-01-07T04:10:37.042Z,10.72
2023-01-07T04:14:41.237Z,10.70
2023-01-07T04:18:44.077Z,10.62
2023-01-07T04:22:46.855Z,10.63
2023-01-07T04:26:49.893Z,10.56
2023-01-07T04:30:55.135Z,10.54
2023-01-07T04:34:58.643Z,10.53
2023-01-07T04:39:02.889Z,10.52
2023-01-07T04:43:06.044Z,10.49
2023-01-07T04:47:10.601Z,10.49
2023-01-07T04:51:13.470Z,10.51
2023-01-07T04:55:16.316Z,10.53
2023-01-07T04:59:19.696Z,10.55
2023-01-07T05:03:25.536Z,10.58
2023-01-07T05:07:28.639Z,10.61
2023-01-07T05:11:32.537Z,10.62
2023-01-07T05:15:35.876Z,10.63
2023-01-07T05:19:40.075Z,10.63
2023-01-07T05:23:45.549Z,10.58
2023-01-07T05:27:49.103Z,10.56
2023-01-07T05:31:52.299Z,10.57
2023-01-07T05:35:56.710Z,10.54
2023-01-07T05:39:59.596Z,10.50
2023-01-07T05:44:02.353Z,10.49
2023-01-07T05:48:05.450Z,10.44
2023-01-07T05:52:09.556Z,10.38
2023-01-07T05:56:12.367Z,10.37
2023-01-07T06:00:16.046Z,10.33
2023-01-07T06:04:18.916Z,10.29
2023-01-07T06:08:23.088Z,10.28
2023-01-07T06:12:25.822Z,10.30
2023-01-07T06:16:28.612Z,10.23
2023-01-07T06:20:34.466Z,10.23
2023-01-07T06:24:38.585Z,10.19
2023-01-07T06:28:41.359Z,10.21
2023-01-07T06:32:44.935Z,10.16
2023-01-07T06:36:47.692Z,10.15
2023-01-07T06:40:51.861Z,10.12
2023-01-07T06:44:54.606Z,10.12
2023-01-07T06:48:57.339Z,10.08
2023-01-07T06:53:00.093Z,10.03
2023-01-07T06:57:04.396Z,10.04
2023-01-07T07:01:08.139Z,10.03
2023-01-07T07:05:11.768Z,9.99
2023-01-07T07:09:14.626Z,9.99
2023-01-07T07:13:19.062Z,9.94
2023-01-07T07:17:21.824Z,9.88
2023-01-07T07:21:24.670Z,9.85
2023-01-07T07:25:27.520Z,9.80
2023-01-07T07:29:31.575Z,9.78
2023-01-07T07:33:34.368Z,9.80
2023-01-07T07:37:37.263Z,9.85
2023-01-07T07:41:40.014Z,9.88
2023-01-07T07:45:46.582Z,9.89
2023-01-07T07:49:50.209Z,9.93
2023-01-07T07:53:52.943Z,9.95
2023-01-07T07:57:56.353Z,9.98
2023-01-07T08:02:01.882Z,10.02
2023-01-07T08:06:04.921Z,10.01
2023-01-07T08:10:08.783Z,10.08
2023-01-07T08:14:11.610Z,10.07
2023-01-07T08:18:15.718Z,10.15
2023-01-07T08:22:18.469Z,10.18
2023-01-07T08:26:21.252Z,10.22
2023-01-07T08:30:24.546Z,10.24
2023-01-07T08:34:29.048Z,10.29
2023-01-07T08:38:32.920Z,10.34
2023-01-07T08:42:35.830Z,10.36
2023-01-07T08:46:38.941Z,10.41
2023-01-07T08:50:43.417Z,10.46
2023-01-07T08:54:48.066Z,10.48
2023-01-07T08:58:50.996Z,10.50
2023-01-07T09:02:53.792Z,10.56
2023-01-07T09:06:57.977Z,10.57
2023-01-07T09:11:00.770Z,10.59
2023-01-07T09:15:03.818Z,10.62
2023-01-07T09:19:06.557Z,10.64
2023-01-07T09:23:10.882Z,10.69
2023-01-07T09:27:14.611Z,10.66
2023-01-07T09:31:17.397Z,10.73
2023-01-07T09:35:20.447Z,10.70
2023-01-07T09:39:24.739Z,10.80
2023-01-07T09:44:00.228Z,10.81
2023-01-07T09:47:59.741Z,10.90
2023-01-07T09:52:09.466Z,10.96
2023-01-07T09:56:21.862Z,11.02
2023-01-07T10:00:25.989Z,11.03
2023-01-07T10:04:39.310Z,11.01
2023-01-07T10:08:56.967Z,11.05
2023-01-07T10:13:16.160Z,11.02
2023-01-07T10:17:30.645Z,11.11
2023-01-07T10:21:39.775Z,11.13
2023-01-07T10:25:46.749Z,11.11
2023-01-07T10:29:53.708Z,11.13
2023-01-07T10:33:58.278Z,11.11
2023-01-07T10:38:05.251Z,11.16
2023-01-07T10:42:16.127Z,11.18
2023-01-07T10:46:31.330Z,11.21
2023-01-07T10:50:52.366Z,11.23
2023-01-07T10:55:19.456Z,11.19
2023-01-07T10:59:23.695Z,11.25
2023-01-07T11:03:28.216Z,11.24
2023-01-07T11:07:37.504Z,11.21
2023-01-07T11:11:41.847Z,11.20
2023-01-07T11:15:48.088Z,11.18
2023-01-07T11:19:52.451Z,11.18
2023-01-07T11:23:55.269Z,11.23
2023-01-07T11:28:02.489Z,11.30
2023-01-07T11:32:06.124Z,11.37
2023-01-07T11:36:10.588Z,11.43
2023-01-07T11:40:23.512Z,11.52
2023-01-07T11:44:26.947Z,11.61
2023-01-07T11:48:31.847Z,11.61
2023-01-07T11:52:36.205Z,11.66
2023-01-07T11:56:39.053Z,11.68
2023-01-07T12:00:41.836Z,11.71
2023-01-07T12:04:44.602Z,11.76
2023-01-07T12:08:56.580Z,11.79
2023-01-07T12:13:04.398Z,11.77
2023-01-07T12:17:11.249Z,11.72
2023-01-07T12:21:32.585Z,11.80
2023-01-07T12:25:54.040Z,11.77
2023-01-07T12:30:26.522Z,11.68
2023-01-07T12:34:41.631Z,11.71
2023-01-07T12:38:49.323Z,11.74
2023-01-07T12:42:57.823Z,11.71
2023-01-07T12:47:32.377Z,11.79
2023-01-07T12:51:37.892Z,11.78
2023-01-07T12:55:45.945Z,11.82
2023-01-07T12:59:56.292Z,11.88
2023-01-07T13:04:12.084Z,11.88
2023-01-07T13:08:23.449Z,11.83
2023-01-07T13:12:46.161Z,11.82
2023-01-07T13:16:50.827Z,11.83
2023-01-07T13:21:08.286Z,11.76
2023-01-07T13:25:32.848Z,11.75
2023-01-07T13:29:55.927Z,11.69
2023-01-07T13:34:12.325Z,11.69
2023-01-07T13:39:01.882Z,11.55
2023-01-07T13:43:17.270Z,11.60
2023-01-07T13:47:23.167Z,11.68
2023-01-07T13:51:30.027Z,11.66
2023-01-07T13:55:38.763Z,11.65
2023-01-07T13:59:49.408Z,11.58
2023-01-07T14:03:53.280Z,11.53
2023-01-07T14:08:00.519Z,11.51
2023-01-07T14:12:33.126Z,11.48
2023-01-07T14:16:42.093Z,11.43
2023-01-07T14:20:49.820Z,11.37
2023-01-07T14:25:17.899Z,11.33
2023-01-07T14:29:40.685Z,11.28
2023-01-07T14:33:51.541Z,11.33
2023-01-07T14:37:54.296Z,11.30
2023-01-07T14:42:44.826Z,11.25
2023-01-07T14:46:53.689Z,11.20
2023-01-07T14:51:20.331Z,11.12
2023-01-07T14:55:41.807Z,11.10
2023-01-07T15:00:07.531Z,11.03
2023-01-07T15:04:58.950Z,10.93
2023-01-07T15:09:23.913Z,10.88
2023-01-07T15:13:45.105Z,10.84
2023-01-07T15:17:48.006Z,10.74
2023-01-07T15:22:02.364Z,10.68
2023-01-07T15:26:12.811Z,10.62
2023-01-07T15:30:24.990Z,10.59
2023-01-07T15:34:31.770Z,10.53
2023-01-07T15:38:44.432Z,10.44
2023-01-07T15:42:49.673Z,10.30
2023-01-07T15:46:52.592Z,10.24
2023-01-07T15:50:55.484Z,10.24
2023-01-07T15:55:14.970Z,10.18
2023-01-07T15:59:23.990Z,10.11
2023-01-07T16:03:28.331Z,10.04
2023-01-07T16:07:34.723Z,9.98
2023-01-07T16:11:39.113Z,9.96
2023-01-07T16:15:42.216Z,9.94
2023-01-07T16:19:45.046Z,9.90
2023-01-07T16:23:48.049Z,9.87
2023-01-07T16:27:52.660Z,9.90
2023-01-07T16:31:57.067Z,9.86
2023-01-07T16:36:03.527Z,9.84
2023-01-07T16:40:16.210Z,9.90
2023-01-07T16:45:05.123Z,9.89
2023-01-07T16:49:22.086Z,9.90
2023-01-07T16:53:28.570Z,9.91
2023-01-07T16:57:39.690Z,9.91
2023-01-07T17:01:44.221Z,9.99
2023-01-07T17:06:00.113Z,9.98
2023-01-07T17:10:02.976Z,10.00
2023-01-07T17:14:26.149Z,10.04
2023-01-07T17:18:30.396Z,10.08
2023-01-07T17:22:38.265Z,10.14
2023-01-07T17:26:43.130Z,10.12
2023-01-07T17:30:45.877Z,10.15
2023-01-07T17:34:50.138Z,10.22
2023-01-07T17:38:53.491Z,10.19
2023-01-07T17:43:14.142Z,10.22
2023-01-07T17:47:22.061Z,10.27
2023-01-07T17:51:27.392Z,10.24
2023-01-07T17:55:32.388Z,10.29
2023-01-07T17:59:35.169Z,10.28
2023-01-07T18:03:38.120Z,10.30
2023-01-07T18:07:42.323Z,10.32
2023-01-07T18:12:04.978Z,10.31
2023-01-07T18:16:11.753Z,10.31
2023-01-07T18:20:15.353Z,10.32
2023-01-07T18:24:21.497Z,10.35
2023-01-07T18:28:24.271Z,10.33
2023-01-07T18:32:27.065Z,10.34
2023-01-07T18:36:29.775Z,10.36
2023-01-07T18:40:33.942Z,10.34
2023-01-07T18:44:36.763Z,10.32
2023-01-07T18:48:39.457Z,10.37
2023-01-07T18:52:43.669Z,10.31
2023-01-07T18:56:47.777Z,10.31
2023-01-07T19:00:50.575Z,10.24
2023-01-07T19:04:53.311Z,10.21
2023-01-07T19:08:56.419Z,10.08
2023-01-07T19:13:00.568Z,10.04
2023-01-07T19:17:03.921Z,9.99
2023-01-07T19:21:09.144Z,9.95
2023-01-07T19:25:12.093Z,9.95
2023-01-07T19:29:16.247Z,9.96
2023-01-07T19:33:19.016Z,9.95
2023-01-07T19:37:22.314Z,9.91
2023-01-07T19:41:25.045Z,9.96
2023-01-07T19:45:29.208Z,9.95
2023-01-07T19:49:31.979Z,10.00
2023-01-07T19:53:35.972Z,10.00
2023-01-07T19:57:38.729Z,10.03
2023-01-07T20:01:44.569Z,10.09
2023-01-07T20:05:47.412Z,10.10
2023-01-07T20:09:50.144Z,10.14
2023-01-07T20:13:53.192Z,10.19
2023-01-07T20:17:57.311Z,10.23
2023-01-07T20:22:00.190Z,10.22
2023-01-07T20:26:04.676Z,10.23
2023-01-07T20:30:09.086Z,10.26
2023-01-07T20:34:13.211Z,10.29
2023-01-07T20:38:16.078Z,10.31
2023-01-07T20:42:19.017Z,10.32
2023-01-07T20:46:22.630Z,10.31
2023-01-07T20:50:26.903Z,10.33
2023-01-07T20:54:29.703Z,10.34
2023-01-07T20:58:34.304Z,10.36
2023-01-07T21:02:37.398Z,10.37
2023-01-07T21:06:41.651Z,10.39
2023-01-07T21:10:44.341Z,10.42
2023-01-07T21:14:47.046Z,10.42
2023-01-07T21:18:50.107Z,10.46
2023-01-07T21:22:54.350Z,10.51
2023-01-07T21:26:57.097Z,10.57
2023-01-07T21:31:04.802Z,10.55
2023-01-07T21:35:08.728Z,10.59
2023-01-07T21:39:13.558Z,10.58
2023-01-07T21:43:16.381Z,10.58
2023-01-07T21:47:19.220Z,10.58
2023-01-07T21:51:24.099Z,10.60
2023-01-07T21:55:28.164Z,10.62
2023-01-07T21:59:30.915Z,10.65
2023-01-07T22:03:33.813Z,10.63
2023-01-07T22:07:36.581Z,10.63
2023-01-07T22:11:41.432Z,10.63
2023-01-07T22:15:44.334Z,10.59
2023-01-07T22:19:47.037Z,10.54
2023-01-07T22:23:50.053Z,10.46
2023-01-07T22:27:57.608Z,10.39
2023-01-07T22:32:00.426Z,10.33
2023-01-07T22:36:03.787Z,10.32
2023-01-07T22:40:08.241Z,10.29
2023-01-07T22:44:19.771Z,10.23
2023-01-07T22:48:27.042Z,10.24
2023-01-07T22:52:29.869Z,10.25
2023-01-07T22:56:33.670Z,10.25
2023-01-07T23:00:41.716Z,10.25
2023-01-07T23:04:44.464Z,10.25
2023-01-07T23:08:47.205Z,10.27
2023-01-07T23:12:49.932Z,10.27
2023-01-07T23:16:54.751Z,10.31
2023-01-07T23:20:58.207Z,10.32
2023-01-07T23:25:17.196Z,10.36
2023-01-07T23:29:25.097Z,10.33
2023-01-07T23:33:29.289Z,10.36
2023-01-07T23:37:32.918Z,10.38
2023-01-07T23:41:35.853Z,10.37
2023-01-07T23:45:38.687Z,10.43
2023-01-07T23:49:42.813Z,10.47
2023-01-07T23:53:46.718Z,10.47
2023-01-07T23:57:50.654Z,10.47
